createdAt,value
2022-10-01T00:04:36.110Z,7.80
2022-10-01T00:09:38.223Z,7.90
2022-10-01T00:14:39.981Z,7.80
2022-10-01T00:19:42.093Z,7.70
2022-10-01T00:24:43.835Z,7.80
2022-10-01T00:29:45.581Z,7.70
2022-10-01T00:34:47.590Z,7.80
2022-10-01T00:39:49.339Z,7.70
2022-10-01T00:44:51.790Z,7.70
2022-10-01T00:49:59.758Z,7.70
2022-10-01T00:55:08.228Z,7.80
2022-10-01T01:00:12.240Z,7.90
2022-10-01T01:05:14.427Z,7.80
2022-10-01T01:10:28.534Z,7.80
2022-10-01T01:16:06.683Z,7.80
2022-10-01T01:21:14.409Z,7.80
2022-10-01T01:26:49.262Z,7.80
2022-10-01T01:31:52.001Z,7.70
2022-10-01T01:37:00.799Z,7.60
2022-10-01T01:42:05.707Z,7.70
2022-10-01T01:47:10.596Z,7.70
2022-10-01T01:52:15.952Z,7.80
2022-10-01T01:57:19.822Z,7.80
2022-10-01T02:02:29.130Z,7.90
2022-10-01T02:07:50.344Z,7.80
2022-10-01T02:13:01.882Z,8.00
2022-10-01T02:18:12.788Z,8.00
2022-10-01T02:23:28.875Z,7.90
2022-10-01T02:28:33.530Z,8.00
2022-10-01T02:33:37.952Z,8.00
2022-10-01T02:38:43.798Z,8.10
2022-10-01T02:43:58.897Z,8.10
2022-10-01T02:49:02.855Z,8.10
2022-10-01T02:54:13.358Z,8.00
2022-10-01T02:59:15.067Z,8.10
2022-10-01T03:04:18.235Z,8.10
2022-10-01T03:09:19.982Z,8.10
2022-10-01T03:14:21.703Z,8.20
2022-10-01T03:19:23.506Z,8.20
2022-10-01T03:24:25.718Z,8.20
2022-10-01T03:29:27.659Z,8.20
2022-10-01T03:34:29.474Z,8.30
2022-10-01T03:39:31.538Z,8.20
2022-10-01T03:44:33.759Z,8.20
2022-10-01T03:49:36.107Z,8.20
2022-10-01T03:54:39.405Z,8.20
2022-10-01T03:59:41.151Z,8.20
2022-10-01T04:04:42.980Z,8.20
2022-10-01T04:09:44.741Z,8.20
2022-10-01T04:14:46.450Z,8.10
2022-10-01T04:19:48.171Z,8.10
2022-10-01T04:24:49.896Z,8.10
2022-10-01T04:29:51.632Z,8.10
2022-10-01T04:34:53.497Z,8.10
2022-10-01T04:39:55.271Z,8.20
2022-10-01T04:44:57.372Z,8.20
2022-10-01T04:49:59.083Z,8.30
2022-10-01T04:55:01.233Z,8.40
2022-10-01T05:00:04.798Z,8.40
2022-10-01T05:05:08.016Z,8.50
2022-10-01T05:10:14.812Z,8.40
2022-10-01T05:15:17.670Z,8.50
2022-10-01T05:20:26.097Z,8.50
2022-10-01T05:25:27.911Z,8.50
2022-10-01T05:30:29.697Z,8.60
2022-10-01T05:35:32.102Z,8.60
2022-10-01T05:40:33.855Z,8.60
2022-10-01T05:45:35.848Z,8.60
2022-10-01T05:50:44.072Z,8.60
2022-10-01T05:55:45.792Z,8.70
2022-10-01T06:00:47.714Z,8.70
2022-10-01T06:05:49.479Z,8.80
2022-10-01T06:10:51.719Z,8.90
2022-10-01T06:15:53.592Z,8.90
2022-10-01T06:20:57.670Z,8.90
2022-10-01T06:26:01.469Z,8.90
2022-10-01T06:31:03.561Z,8.90
2022-10-01T06:36:05.424Z,8.80
2022-10-01T06:41:07.410Z,8.80
2022-10-01T06:46:09.321Z,8.80
2022-10-01T06:51:11.128Z,9.10
2022-10-01T06:56:13.308Z,9.20
2022-10-01T07:01:19.675Z,9.40
2022-10-01T07:06:21.440Z,9.70
2022-10-01T07:11:23.990Z,9.80
2022-10-01T07:16:25.761Z,10.00
2022-10-01T07:21:27.520Z,9.80
2022-10-01T07:26:29.265Z,9.90
2022-10-01T07:31:31.078Z,10.00
2022-10-01T07:36:34.095Z,10.20
2022-10-01T07:41:36.141Z,10.10
2022-10-01T07:46:38.698Z,10.10
2022-10-01T07:51:43.425Z,10.00
2022-10-01T07:56:45.241Z,10.10
2022-10-01T08:01:51.914Z,10.40
2022-10-01T08:06:54.278Z,10.70
2022-10-01T08:11:56.214Z,10.80
2022-10-01T08:16:58.463Z,10.80
2022-10-01T08:22:00.381Z,10.70
2022-10-01T08:27:02.264Z,10.80
2022-10-01T08:32:04.071Z,10.80
2022-10-01T08:37:05.843Z,11.00
2022-10-01T08:42:26.004Z,11.20
2022-10-01T08:47:46.910Z,11.40
2022-10-01T08:53:04.990Z,11.40
2022-10-01T08:58:11.179Z,11.20
2022-10-01T09:03:15.401Z,11.20
2022-10-01T09:08:44.296Z,11.10
2022-10-01T09:14:12.204Z,11.10
2022-10-01T09:19:47.836Z,11.10
2022-10-01T09:25:09.789Z,11.10
2022-10-01T09:30:16.171Z,10.90
2022-10-01T09:35:32.816Z,11.00
2022-10-01T09:40:55.357Z,11.20
2022-10-01T09:45:57.657Z,11.20
2022-10-01T09:51:08.319Z,11.00
2022-10-01T09:56:24.123Z,11.40
2022-10-01T10:01:44.405Z,11.60
2022-10-01T10:06:46.669Z,11.50
2022-10-01T10:11:49.180Z,11.60
2022-10-01T10:16:51.180Z,11.40
2022-10-01T10:21:59.850Z,11.70
2022-10-01T10:27:05.304Z,12.00
2022-10-01T10:32:31.837Z,12.00
2022-10-01T10:37:37.450Z,12.00
2022-10-01T10:42:48.049Z,12.00
2022-10-01T10:47:52.733Z,11.80
2022-10-01T10:52:54.506Z,11.80
2022-10-01T10:58:09.291Z,12.10
2022-10-01T11:03:32.386Z,11.80
2022-10-01T11:08:35.817Z,11.90
2022-10-01T11:14:03.231Z,12.40
2022-10-01T11:19:32.899Z,12.60
2022-10-01T11:24:43.740Z,12.30
2022-10-01T11:30:10.239Z,12.30
2022-10-01T11:36:02.977Z,12.30
2022-10-01T11:41:31.332Z,12.20
2022-10-01T11:46:41.060Z,12.00
2022-10-01T11:51:49.370Z,11.90
2022-10-01T11:57:13.483Z,11.70
2022-10-01T12:02:25.264Z,11.70
2022-10-01T12:07:36.363Z,11.80
2022-10-01T12:12:47.236Z,11.90
2022-10-01T12:18:06.530Z,11.90
2022-10-01T12:23:15.224Z,11.80
2022-10-01T12:28:31.219Z,11.80
2022-10-01T12:33:45.520Z,11.80
2022-10-01T12:39:01.437Z,11.90
2022-10-01T12:44:18.405Z,12.10
2022-10-01T12:49:45.881Z,12.00
2022-10-01T12:55:00.039Z,12.30
2022-10-01T13:00:18.057Z,12.10
2022-10-01T13:05:40.589Z,12.40
2022-10-01T13:11:14.795Z,12.20
2022-10-01T13:16:40.550Z,12.30
2022-10-01T13:21:50.363Z,12.10
2022-10-01T13:26:57.791Z,12.20
2022-10-01T13:32:02.281Z,12.40
2022-10-01T13:37:14.112Z,12.40
2022-10-01T13:42:26.101Z,12.60
2022-10-01T13:47:28.628Z,12.30
2022-10-01T13:52:32.120Z,12.50
2022-10-01T13:57:35.185Z,12.70
2022-10-01T14:02:42.477Z,12.70
2022-10-01T14:07:47.716Z,12.50
2022-10-01T14:13:08.839Z,12.30
2022-10-01T14:18:16.894Z,12.30
2022-10-01T14:23:31.904Z,12.10
2022-10-01T14:28:54.489Z,12.30
2022-10-01T14:34:04.728Z,12.40
2022-10-01T14:39:21.642Z,12.20
2022-10-01T14:44:26.404Z,11.90
2022-10-01T14:49:32.950Z,11.60
2022-10-01T14:54:45.231Z,11.40
2022-10-01T14:59:48.787Z,11.20
2022-10-01T15:04:53.210Z,10.90
2022-10-01T15:10:06.034Z,10.80
2022-10-01T15:15:19.814Z,10.60
2022-10-01T15:20:21.880Z,10.40
2022-10-01T15:25:28.014Z,10.20
2022-10-01T15:30:29.862Z,10.00
2022-10-01T15:35:32.522Z,9.90
2022-10-01T15:40:35.487Z,9.70
2022-10-01T15:45:37.296Z,9.50
2022-10-01T15:50:41.731Z,9.40
2022-10-01T15:55:52.945Z,9.10
2022-10-01T16:01:00.053Z,9.10
2022-10-01T16:06:04.179Z,8.90
2022-10-01T16:11:15.924Z,8.90
2022-10-01T16:16:24.159Z,8.80
2022-10-01T16:21:26.903Z,8.60
2022-10-01T16:26:28.967Z,8.40
2022-10-01T16:31:31.758Z,8.50
2022-10-01T16:36:34.285Z,8.50
2022-10-01T16:41:36.659Z,8.50
2022-10-01T16:46:38.631Z,8.40
2022-10-01T16:51:41.111Z,8.30
2022-10-01T16:56:43.355Z,8.40
2022-10-01T17:01:45.480Z,8.40
2022-10-01T17:06:48.214Z,8.50
2022-10-01T17:11:50.220Z,8.50
2022-10-01T17:16:53.512Z,8.50
2022-10-01T17:21:56.002Z,8.40
2022-10-01T17:26:57.893Z,8.40
2022-10-01T17:31:59.671Z,8.30
2022-10-01T17:37:01.488Z,8.20
2022-10-01T17:42:03.426Z,8.20
2022-10-01T17:47:05.175Z,8.20
2022-10-01T17:52:06.879Z,8.10
2022-10-01T17:57:10.857Z,8.20
2022-10-01T18:02:36.769Z,8.10
2022-10-01T18:07:39.085Z,8.00
2022-10-01T18:12:41.228Z,7.90
2022-10-01T18:17:43.771Z,7.90
2022-10-01T18:22:52.595Z,7.80
2022-10-01T18:27:54.387Z,7.70
2022-10-01T18:32:57.276Z,7.70
2022-10-01T18:38:14.680Z,7.80
2022-10-01T18:43:24.268Z,7.80
2022-10-01T18:48:40.731Z,7.60
2022-10-01T18:53:48.399Z,7.50
2022-10-01T18:59:04.691Z,7.70
2022-10-01T19:04:33.579Z,7.60
2022-10-01T19:10:09.586Z,7.50
2022-10-01T19:15:14.287Z,7.50
2022-10-01T19:20:22.052Z,7.40
2022-10-01T19:56:11.260Z,7.20
2022-10-01T20:01:19.895Z,7.10
2022-10-01T20:06:32.645Z,7.10
2022-10-01T20:11:51.327Z,7.00
2022-10-01T20:16:54.227Z,7.00
2022-10-01T20:22:03.827Z,6.90
2022-10-01T20:27:48.406Z,6.80
2022-10-01T20:33:06.175Z,6.80
2022-10-01T20:38:20.608Z,6.90
2022-10-01T20:43:36.814Z,7.00
2022-10-01T20:48:43.943Z,7.00
2022-10-01T20:53:49.587Z,7.00
2022-10-01T20:59:10.152Z,7.00
2022-10-01T21:04:21.007Z,7.00
2022-10-01T21:09:38.260Z,7.10
2022-10-01T21:14:46.286Z,7.00
2022-10-01T21:19:57.930Z,7.00
2022-10-01T21:25:26.600Z,6.90
2022-10-01T21:30:34.647Z,6.90
2022-10-01T21:35:58.836Z,6.90
2022-10-01T21:41:16.222Z,6.90
2022-10-01T21:46:38.064Z,6.90
2022-10-01T21:51:56.591Z,6.90
2022-10-01T21:57:20.102Z,6.90
2022-10-01T22:02:34.949Z,6.90
2022-10-01T22:07:44.700Z,6.90
2022-10-01T22:12:51.854Z,7.00
2022-10-01T22:17:55.247Z,7.00
2022-10-01T22:23:01.423Z,7.00
2022-10-01T22:28:09.309Z,7.00
2022-10-01T22:33:20.025Z,6.90
2022-10-01T22:38:25.910Z,6.90
2022-10-01T22:43:28.370Z,7.10
2022-10-01T22:48:48.620Z,7.10
2022-10-01T22:54:14.443Z,7.20
2022-10-01T22:59:26.156Z,7.30
2022-10-01T23:04:30.769Z,7.40
2022-10-01T23:09:45.616Z,7.30
2022-10-01T23:15:16.265Z,7.30
2022-10-01T23:20:32.111Z,7.30
2022-10-01T23:25:58.248Z,7.30
2022-10-01T23:31:24.098Z,7.40
2022-10-01T23:36:44.910Z,7.40
2022-10-01T23:41:57.046Z,7.40
2022-10-01T23:47:03.231Z,7.40
2022-10-01T23:52:16.709Z,7.40
2022-10-01T23:57:26.278Z,7.50
